Time;durP1;ratioP1;P1;durP2;ratioP2;P2;SDS_P1;SDS_P2;PMS_P1;PMS_P2;Temp;Humidity;BMP_temperature;BMP_pressure;BME280_temperature;BME280_humidity;BME280_pressure;Samples;Min_cycle;Max_cycle;Signal;HPM_P1;HPM_P2
2023/10/30 00:00:58;;;;;;;2.78;1.67;;;17.80;70.10;;;;;;5019962;28;20304;-66
2023/10/30 00:03:24;;;;;;;2.30;1.70;;;17.80;70.10;;;;;;5015065;28;20046;-66
2023/10/30 00:05:49;;;;;;;2.85;2.08;;;17.80;70.10;;;;;;5019635;28;20034;-65
2023/10/30 00:08:16;;;;;;;4.03;1.83;;;17.80;70.10;;;;;;5019996;28;20037;-66
2023/10/30 00:10:42;;;;;;;2.35;1.73;;;17.80;70.10;;;;;;5022398;28;20025;-66
2023/10/30 00:13:07;;;;;;;4.07;1.92;;;17.80;70.10;;;;;;5020086;28;20032;-65
2023/10/30 00:15:33;;;;;;;2.03;1.55;;;17.80;70.10;;;;;;5021705;28;20041;-65
2023/10/30 00:17:58;;;;;;;1.77;1.42;;;17.80;70.10;;;;;;5021338;28;20473;-65
2023/10/30 00:20:24;;;;;;;2.40;1.70;;;17.80;70.10;;;;;;5024783;28;20092;-67
2023/10/30 00:22:49;;;;;;;1.65;1.55;;;17.80;70.10;;;;;;5021368;28;20025;-67
2023/10/30 00:25:15;;;;;;;2.05;1.40;;;17.80;70.20;;;;;;5021821;28;20026;-68
2023/10/30 00:27:41;;;;;;;2.05;1.60;;;17.80;70.10;;;;;;5020828;28;20038;-67
2023/10/30 00:30:08;;;;;;;3.17;1.50;;;17.80;70.10;;;;;;5016887;28;20332;-66
2023/10/30 00:32:33;;;;;;;1.60;1.20;;;17.80;70.10;;;;;;5020314;28;20504;-67
2023/10/30 00:34:59;;;;;;;2.53;1.77;;;17.80;70.20;;;;;;5020631;28;20036;-67
2023/10/30 00:37:24;;;;;;;1.73;1.35;;;17.80;70.10;;;;;;5020135;28;20034;-67
2023/10/30 00:39:50;;;;;;;1.95;1.55;;;17.80;70.10;;;;;;5019324;28;20172;-67
2023/10/30 00:42:15;;;;;;;1.90;1.35;;;17.80;70.10;;;;;;5020055;28;20051;-66
2023/10/30 00:44:41;;;;;;;1.60;1.17;;;17.80;70.20;;;;;;5020013;28;20568;-67
2023/10/30 00:47:06;;;;;;;1.85;1.45;;;17.80;70.20;;;;;;5021521;28;20036;-67
2023/10/30 00:49:33;;;;;;;1.20;0.88;;;17.80;70.20;;;;;;5021606;28;20067;-66
2023/10/30 00:51:58;;;;;;;2.22;1.27;;;17.80;70.10;;;;;;5019432;28;20952;-67
2023/10/30 00:54:24;;;;;;;1.88;1.05;;;17.80;70.10;;;;;;5021380;28;20037;-63
2023/10/30 00:56:49;;;;;;;1.40;1.30;;;17.80;70.10;;;;;;5017067;28;20037;-66
2023/10/30 00:59:15;;;;;;;1.30;1.20;;;17.80;70.10;;;;;;5020887;28;20044;-66
2023/10/30 01:01:40;;;;;;;1.48;1.20;;;17.80;70.20;;;;;;5015502;28;20041;-66
2023/10/30 01:04:07;;;;;;;1.58;1.30;;;17.80;70.10;;;;;;5018575;28;20041;-65
2023/10/30 01:06:33;;;;;;;1.42;1.23;;;17.80;70.10;;;;;;5019236;28;20034;-65
2023/10/30 01:08:58;;;;;;;1.75;1.20;;;17.80;70.20;;;;;;5018443;28;20641;-66
2023/10/30 01:11:24;;;;;;;1.40;1.23;;;17.80;70.20;;;;;;5021112;28;20049;-66
2023/10/30 01:13:49;;;;;;;1.05;0.90;;;17.80;70.20;;;;;;5020689;28;20036;-65
2023/10/30 01:16:15;;;;;;;1.98;1.08;;;17.80;70.20;;;;;;5022996;28;20025;-66
2023/10/30 01:18:40;;;;;;;1.25;1.13;;;17.80;70.20;;;;;;5023636;28;20040;-67
2023/10/30 01:21:10;;;;;;;1.55;1.13;;;17.80;70.20;;;;;;5022494;28;20079;-63
2023/10/30 01:23:35;;;;;;;2.45;1.65;;;17.90;70.20;;;;;;5020688;28;20117;-68
2023/10/30 01:26:01;;;;;;;1.42;0.85;;;17.80;70.20;;;;;;5023774;28;20128;-65
2023/10/30 01:28:26;;;;;;;1.75;1.08;;;17.90;70.20;;;;;;5023123;28;20221;-66
2023/10/30 01:30:52;;;;;;;1.85;0.85;;;17.80;70.20;;;;;;5004730;28;20037;-66
2023/10/30 01:33:17;;;;;;;1.10;0.95;;;17.80;70.20;;;;;;5021499;28;20440;-68
2023/10/30 01:35:43;;;;;;;1.30;1.10;;;17.80;70.20;;;;;;5018332;28;20037;-66
2023/10/30 01:38:08;;;;;;;1.40;0.80;;;17.80;70.20;;;;;;5018620;28;20839;-66
2023/10/30 01:40:35;;;;;;;1.10;0.93;;;17.80;70.20;;;;;;5020608;28;20045;-66
2023/10/30 01:43:08;;;;;;;2.42;1.25;;;17.80;70.20;;;;;;5019311;28;20117;-66
2023/10/30 01:45:34;;;;;;;1.60;0.90;;;17.80;70.20;;;;;;5021969;28;20341;-66
2023/10/30 01:47:59;;;;;;;1.38;0.70;;;17.80;70.20;;;;;;5020000;28;20064;-67
2023/10/30 01:50:25;;;;;;;1.10;0.80;;;17.80;70.20;;;;;;5021604;28;20052;-65
2023/10/30 01:52:50;;;;;;;1.10;0.88;;;17.90;70.20;;;;;;5018381;28;20437;-65
2023/10/30 01:55:16;;;;;;;2.22;1.05;;;17.80;70.80;;;;;;5000972;28;20022;-65
2023/10/30 01:57:43;;;;;;;1.48;1.00;;;17.80;70.20;;;;;;5019097;28;20028;-66
2023/10/30 02:00:09;;;;;;;1.10;1.00;;;17.80;70.20;;;;;;5004794;28;20033;-66
2023/10/30 02:02:38;;;;;;;1.52;0.70;;;17.80;70.20;;;;;;5014505;28;20045;-64
2023/10/30 02:05:05;;;;;;;2.35;0.95;;;17.80;70.20;;;;;;5015798;28;20049;-64
2023/10/30 02:07:31;;;;;;;0.90;0.70;;;17.90;70.20;;;;;;5020070;28;20030;-65
2023/10/30 02:09:57;;;;;;;1.13;1.02;;;17.80;70.20;;;;;;5018444;28;20026;-66
2023/10/30 02:12:22;;;;;;;1.27;0.95;;;17.90;70.20;;;;;;5001299;28;20147;-66
2023/10/30 02:14:48;;;;;;;0.75;0.68;;;17.80;70.20;;;;;;5020303;28;20022;-63
2023/10/30 02:17:13;;;;;;;1.55;0.70;;;17.80;70.20;;;;;;5019842;28;20083;-65
2023/10/30 02:19:39;;;;;;;1.67;0.90;;;17.80;70.20;;;;;;5018478;28;20033;-65
2023/10/30 02:22:05;;;;;;;5.38;0.70;;;17.80;70.20;;;;;;5019328;28;20500;-66
2023/10/30 02:24:30;;;;;;;1.02;0.65;;;17.80;70.20;;;;;;5019716;28;20060;-66
2023/10/30 02:26:56;;;;;;;0.98;0.60;;;17.90;70.20;;;;;;5019021;28;20499;-66
2023/10/30 02:29:23;;;;;;;1.48;0.80;;;17.80;70.20;;;;;;5016033;28;20087;-65
2023/10/30 02:31:50;;;;;;;0.77;0.60;;;17.80;70.20;;;;;;5017066;28;20030;-65
2023/10/30 02:34:16;;;;;;;0.82;0.63;;;17.90;70.60;;;;;;5001735;28;20041;-65
2023/10/30 02:36:41;;;;;;;1.20;0.70;;;17.80;70.20;;;;;;5019017;28;20463;-66
2023/10/30 02:39:07;;;;;;;0.82;0.52;;;17.80;70.20;;;;;;5017347;28;20034;-65
2023/10/30 02:41:33;;;;;;;1.00;0.60;;;17.80;70.20;;;;;;5021619;28;20055;-65
2023/10/30 02:43:59;;;;;;;0.60;0.40;;;17.80;70.20;;;;;;5024492;28;21006;-65
2023/10/30 02:46:25;;;;;;;0.50;0.43;;;17.80;70.20;;;;;;5022968;28;20061;-65
2023/10/30 02:48:50;;;;;;;1.38;0.60;;;17.90;70.20;;;;;;5023413;28;20381;-65
2023/10/30 02:51:16;;;;;;;1.52;0.60;;;17.80;70.20;;;;;;5022391;28;20035;-65
2023/10/30 02:53:42;;;;;;;1.13;0.90;;;17.90;70.20;;;;;;5022739;28;20388;-66
2023/10/30 02:56:07;;;;;;;0.70;0.60;;;17.80;70.20;;;;;;5022582;28;20029;-66
2023/10/30 02:58:33;;;;;;;1.23;0.80;;;17.80;70.20;;;;;;5019336;28;20052;-65
2023/10/30 03:01:00;;;;;;;0.60;0.50;;;17.80;70.10;;;;;;5020840;28;20041;-65
2023/10/30 03:03:25;;;;;;;0.70;0.60;;;17.90;70.20;;;;;;5020775;28;20049;-66
2023/10/30 03:05:51;;;;;;;0.60;0.60;;;17.90;70.20;;;;;;5022924;28;20069;-65
2023/10/30 03:08:16;;;;;;;0.90;0.50;;;17.90;70.30;;;;;;5022034;28;20515;-65
2023/10/30 03:10:42;;;;;;;2.95;0.50;;;17.90;70.20;;;;;;5024806;28;20029;-64
2023/10/30 03:13:07;;;;;;;0.50;0.40;;;17.90;70.80;;;;;;5023676;28;20387;-66
2023/10/30 03:15:33;;;;;;;0.80;0.50;;;17.80;70.20;;;;;;5024762;28;20516;-65
2023/10/30 03:17:58;;;;;;;0.40;0.38;;;17.90;70.20;;;;;;5023945;28;20045;-65
2023/10/30 03:20:24;;;;;;;1.10;0.57;;;17.80;70.20;;;;;;5022823;28;20116;-65
2023/10/30 03:22:50;;;;;;;0.50;0.40;;;17.80;70.20;;;;;;5003799;28;20493;-65
2023/10/30 03:25:16;;;;;;;0.80;0.50;;;17.80;70.20;;;;;;5004908;28;20492;-65
2023/10/30 03:27:41;;;;;;;0.85;0.50;;;17.80;70.20;;;;;;5015890;28;20037;-65
2023/10/30 03:30:07;;;;;;;1.65;0.50;;;17.90;70.20;;;;;;5020189;28;20105;-65
2023/10/30 03:32:33;;;;;;;1.05;0.40;;;17.80;70.20;;;;;;5021220;28;20115;-65
2023/10/30 03:34:59;;;;;;;1.65;0.65;;;17.80;70.20;;;;;;5022085;28;20040;-65
2023/10/30 03:37:25;;;;;;;1.23;0.50;;;17.90;70.20;;;;;;5022655;28;20117;-66
2023/10/30 03:39:50;;;;;;;0.95;0.50;;;17.90;70.20;;;;;;5025256;28;20519;-65
2023/10/30 03:42:16;;;;;;;1.00;0.50;;;17.80;70.20;;;;;;5024180;28;20083;-65
2023/10/30 03:44:41;;;;;;;0.73;0.50;;;17.90;70.20;;;;;;5020282;28;20030;-67
2023/10/30 03:47:07;;;;;;;0.65;0.35;;;17.90;70.30;;;;;;5025757;28;20050;-65
2023/10/30 03:49:32;;;;;;;0.68;0.57;;;17.90;70.30;;;;;;5023118;28;20095;-65
2023/10/30 03:51:58;;;;;;;0.55;0.40;;;17.90;70.30;;;;;;5018986;28;20025;-65
2023/10/30 03:54:23;;;;;;;1.05;0.50;;;17.90;70.20;;;;;;5014199;28;20034;-65
2023/10/30 03:56:49;;;;;;;0.80;0.55;;;17.90;70.20;;;;;;5019067;28;20551;-65
2023/10/30 03:59:16;;;;;;;0.60;0.32;;;17.90;70.30;;;;;;5018578;28;20030;-65
2023/10/30 04:01:42;;;;;;;0.30;0.30;;;17.90;70.20;;;;;;5019245;28;20061;-65
2023/10/30 04:04:07;;;;;;;0.90;0.50;;;17.90;70.20;;;;;;5019853;28;20485;-65
2023/10/30 04:06:36;;;;;;;0.80;0.50;;;17.90;70.20;;;;;;5022956;28;20037;-64
2023/10/30 04:09:05;;;;;;;1.00;0.43;;;17.80;70.20;;;;;;5021179;28;20854;-65
2023/10/30 04:11:31;;;;;;;0.47;0.32;;;17.90;70.20;;;;;;5024562;28;20053;-65
2023/10/30 04:13:57;;;;;;;0.30;0.30;;;17.90;70.20;;;;;;5021401;28;20026;-65
2023/10/30 04:16:22;;;;;;;1.00;0.63;;;17.90;70.20;;;;;;5021125;28;20116;-65
2023/10/30 04:18:48;;;;;;;1.25;0.40;;;17.90;70.20;;;;;;5021433;28;20030;-66
2023/10/30 04:21:13;;;;;;;1.05;0.52;;;17.90;70.20;;;;;;5016506;28;20046;-65
2023/10/30 04:23:40;;;;;;;0.50;0.30;;;17.80;70.20;;;;;;5016052;28;20036;-65
2023/10/30 04:26:06;;;;;;;0.68;0.50;;;17.90;70.30;;;;;;5017492;28;20030;-66
2023/10/30 04:28:31;;;;;;;1.13;0.30;;;17.90;70.20;;;;;;5017371;28;20096;-65
2023/10/30 04:30:57;;;;;;;1.15;0.55;;;17.90;70.20;;;;;;5016068;28;20030;-66
2023/10/30 04:33:22;;;;;;;0.75;0.40;;;17.90;70.20;;;;;;5019043;28;20038;-65
2023/10/30 04:35:48;;;;;;;0.30;0.30;;;17.90;70.20;;;;;;5022109;28;20022;-66
2023/10/30 04:38:13;;;;;;;0.55;0.35;;;17.80;70.20;;;;;;5022533;28;20152;-65
2023/10/30 04:40:39;;;;;;;0.50;0.40;;;17.90;70.20;;;;;;5023748;28;20030;-66
2023/10/30 04:43:04;;;;;;;1.00;0.50;;;17.90;70.20;;;;;;5021713;28;20116;-65
2023/10/30 04:45:30;;;;;;;0.75;0.30;;;17.90;70.20;;;;;;5021096;28;20033;-66
2023/10/30 04:47:55;;;;;;;0.80;0.50;;;17.90;70.20;;;;;;5021298;28;20528;-66
2023/10/30 04:50:21;;;;;;;1.15;0.30;;;17.90;70.20;;;;;;5024450;28;20112;-64
2023/10/30 04:52:47;;;;;;;0.73;0.40;;;17.80;70.10;;;;;;5018817;28;20045;-66
2023/10/30 04:55:12;;;;;;;0.47;0.43;;;17.90;70.20;;;;;;5018054;28;20030;-65
2023/10/30 04:57:38;;;;;;;0.60;0.30;;;17.90;70.20;;;;;;5018898;28;20109;-66
2023/10/30 05:00:05;;;;;;;1.00;0.60;;;17.90;70.20;;;;;;5017231;28;20033;-64
2023/10/30 05:02:30;;;;;;;0.85;0.35;;;17.90;70.20;;;;;;5015984;28;20278;-65
2023/10/30 05:04:56;;;;;;;0.40;0.30;;;17.90;70.20;;;;;;5018422;28;20025;-64
2023/10/30 05:07:21;;;;;;;0.85;0.30;;;17.90;70.20;;;;;;5021237;28;20026;-65
2023/10/30 05:09:47;;;;;;;0.57;0.30;;;17.90;70.20;;;;;;5021267;28;20501;-64
2023/10/30 05:12:12;;;;;;;1.40;0.40;;;17.90;70.20;;;;;;5020681;28;20033;-63
2023/10/30 05:14:38;;;;;;;0.65;0.40;;;17.90;70.20;;;;;;5019577;28;20321;-66
2023/10/30 05:17:04;;;;;;;0.73;0.20;;;17.80;70.20;;;;;;5018333;28;20037;-64
2023/10/30 05:19:29;;;;;;;0.32;0.22;;;17.80;70.20;;;;;;5021036;28;20033;-66
2023/10/30 05:21:55;;;;;;;0.90;0.40;;;17.90;70.20;;;;;;5017504;28;20041;-65
2023/10/30 05:24:23;;;;;;;0.47;0.30;;;17.90;70.20;;;;;;5015789;28;20037;-65
2023/10/30 05:26:48;;;;;;;1.00;0.40;;;17.90;70.20;;;;;;5016362;28;20091;-66
2023/10/30 05:29:14;;;;;;;0.40;0.30;;;17.90;70.20;;;;;;5016754;28;20029;-66
2023/10/30 05:31:42;;;;;;;0.55;0.30;;;17.90;70.20;;;;;;5017991;28;20026;-64
2023/10/30 05:34:08;;;;;;;0.30;0.28;;;17.90;70.20;;;;;;5018382;28;20481;-65
2023/10/30 05:36:34;;;;;;;1.55;0.47;;;17.90;70.20;;;;;;5020989;28;20536;-65
2023/10/30 05:39:00;;;;;;;0.35;0.20;;;17.90;70.20;;;;;;5020860;28;20145;-65
2023/10/30 05:41:25;;;;;;;1.20;0.75;;;17.90;70.20;;;;;;5018985;28;20044;-65
2023/10/30 05:43:51;;;;;;;0.93;0.22;;;17.90;70.20;;;;;;5017354;28;20484;-65
2023/10/30 05:46:17;;;;;;;0.50;0.20;;;17.90;70.20;;;;;;5002242;28;20408;-65
2023/10/30 05:48:44;;;;;;;0.43;0.40;;;17.90;70.20;;;;;;5017122;28;20049;-66
2023/10/30 05:51:10;;;;;;;1.50;0.30;;;17.90;70.20;;;;;;5018083;28;20049;-65
2023/10/30 05:53:35;;;;;;;0.50;0.30;;;17.90;70.20;;;;;;5015283;28;20112;-65
2023/10/30 05:56:01;;;;;;;0.28;0.28;;;17.90;70.20;;;;;;4996876;28;20562;-64
2023/10/30 05:58:27;;;;;;;1.20;0.40;;;17.90;70.20;;;;;;5017703;28;20037;-62
2023/10/30 06:00:52;;;;;;;0.73;0.22;;;17.90;70.20;;;;;;5000479;28;20642;-65
2023/10/30 06:03:18;;;;;;;0.60;0.30;;;17.90;70.20;;;;;;5018220;28;20088;-65
2023/10/30 06:05:44;;;;;;;1.55;0.38;;;17.90;70.20;;;;;;5023008;28;20060;-65
2023/10/30 06:08:10;;;;;;;0.70;0.30;;;17.90;70.20;;;;;;5019337;28;20036;-62
2023/10/30 06:10:37;;;;;;;0.50;0.30;;;17.90;70.20;;;;;;5020326;28;20029;-66
2023/10/30 06:13:03;;;;;;;0.52;0.32;;;17.90;70.20;;;;;;5017605;28;20036;-65
2023/10/30 06:15:28;;;;;;;0.40;0.20;;;17.90;70.20;;;;;;5020664;28;20030;-65
2023/10/30 06:17:54;;;;;;;1.13;0.40;;;17.90;70.20;;;;;;5019640;28;20374;-64
2023/10/30 06:20:19;;;;;;;0.28;0.28;;;17.90;70.20;;;;;;5018289;28;20693;-63
2023/10/30 06:22:45;;;;;;;0.70;0.45;;;17.90;70.20;;;;;;5015016;28;20488;-63
2023/10/30 06:25:10;;;;;;;0.30;0.20;;;17.90;70.80;;;;;;5014322;28;20026;-63
2023/10/30 06:27:40;;;;;;;0.32;0.20;;;17.90;70.10;;;;;;5016426;28;20025;-66
2023/10/30 06:30:06;;;;;;;1.48;0.40;;;17.90;70.20;;;;;;5015686;28;20381;-64
2023/10/30 06:32:31;;;;;;;0.95;0.30;;;17.90;70.10;;;;;;5019718;28;20681;-65
2023/10/30 06:34:57;;;;;;;0.98;0.30;;;17.90;70.10;;;;;;5019395;28;20584;-67
2023/10/30 06:37:22;;;;;;;0.95;0.38;;;17.90;70.10;;;;;;5021082;28;20459;-64
2023/10/30 06:39:48;;;;;;;0.55;0.30;;;17.90;70.20;;;;;;5018326;28;20108;-63
2023/10/30 06:42:14;;;;;;;0.82;0.30;;;17.90;70.20;;;;;;5017903;28;20428;-63
2023/10/30 06:44:39;;;;;;;1.27;0.30;;;17.90;70.20;;;;;;5017141;28;20415;-63
2023/10/30 06:47:05;;;;;;;1.90;0.40;;;17.90;70.20;;;;;;5013719;28;20029;-64
2023/10/30 06:49:31;;;;;;;0.50;0.10;;;17.90;70.10;;;;;;5013938;28;20116;-64
2023/10/30 06:51:56;;;;;;;1.15;0.40;;;17.90;70.20;;;;;;5016428;28;20077;-63
2023/10/30 06:54:22;;;;;;;0.80;0.32;;;17.90;70.20;;;;;;5014619;28;20488;-60
2023/10/30 06:56:47;;;;;;;1.67;0.77;;;17.90;70.20;;;;;;5015198;28;20026;-62
2023/10/30 06:59:14;;;;;;;0.57;0.30;;;17.90;70.20;;;;;;5013227;28;20036;-59
2023/10/30 07:01:43;;;;;;;0.70;0.30;;;17.90;70.10;;;;;;5019407;28;20053;-64
2023/10/30 07:04:10;;;;;;;2.47;0.30;;;17.90;70.10;;;;;;5019085;28;20034;-63
2023/10/30 07:06:37;;;;;;;1.25;0.30;;;17.90;70.20;;;;;;5019516;28;20041;-61
2023/10/30 07:09:03;;;;;;;1.52;0.38;;;17.90;70.20;;;;;;5017642;28;20041;-63
2023/10/30 07:11:29;;;;;;;2.25;0.45;;;17.90;70.20;;;;;;5017941;28;20107;-64
2023/10/30 07:13:55;;;;;;;0.85;0.50;;;17.90;70.20;;;;;;5016746;28;20054;-64
2023/10/30 07:16:20;;;;;;;2.45;0.30;;;17.90;70.20;;;;;;5021776;28;20029;-65
2023/10/30 07:18:46;;;;;;;1.02;0.30;;;17.90;70.20;;;;;;5016344;28;20172;-63
2023/10/30 07:21:11;;;;;;;1.35;0.20;;;17.90;70.20;;;;;;5013270;28;20038;-63
2023/10/30 07:23:36;;;;;;;2.45;0.40;;;17.90;70.20;;;;;;5003126;28;20022;-63
2023/10/30 07:26:02;;;;;;;1.23;0.35;;;17.90;70.10;;;;;;5014187;28;20061;-63
2023/10/30 07:28:28;;;;;;;0.40;0.30;;;17.90;70.20;;;;;;5016046;28;20045;-63
2023/10/30 07:30:53;;;;;;;2.05;0.45;;;17.90;70.20;;;;;;5024474;28;20411;-64
2023/10/30 07:33:19;;;;;;;3.58;0.50;;;17.90;70.20;;;;;;5024187;28;20067;-61
2023/10/30 07:35:45;;;;;;;1.30;0.50;;;17.90;70.20;;;;;;5024163;28;20083;-63
2023/10/30 07:38:10;;;;;;;0.52;0.22;;;17.90;70.10;;;;;;5003817;28;20029;-63
2023/10/30 07:40:36;;;;;;;1.17;0.30;;;17.90;70.20;;;;;;5021857;28;20034;-63
2023/10/30 07:43:01;;;;;;;1.55;0.60;;;17.90;70.10;;;;;;5020483;28;20399;-60
2023/10/30 07:45:27;;;;;;;3.85;0.40;;;17.90;70.20;;;;;;5025406;28;20034;-62
2023/10/30 07:47:52;;;;;;;1.13;0.65;;;17.90;70.10;;;;;;5019196;28;20113;-61
2023/10/30 07:50:18;;;;;;;1.45;0.55;;;17.90;70.10;;;;;;5018566;28;20025;-64
2023/10/30 07:52:44;;;;;;;0.52;0.30;;;17.90;70.80;;;;;;5018672;28;20393;-63
2023/10/30 07:55:10;;;;;;;1.60;0.38;;;17.90;70.20;;;;;;5018093;28;20320;-63
2023/10/30 07:57:35;;;;;;;1.08;0.40;;;17.90;70.20;;;;;;5022379;28;20117;-63
2023/10/30 08:00:01;;;;;;;3.47;0.90;;;17.90;70.10;;;;;;5022703;28;20097;-65
2023/10/30 08:02:26;;;;;;;3.50;1.10;;;17.90;70.20;;;;;;5023317;28;20042;-65
2023/10/30 08:04:52;;;;;;;2.97;1.00;;;17.90;70.20;;;;;;5022415;28;20025;-65
2023/10/30 08:07:18;;;;;;;3.58;1.10;;;17.90;70.20;;;;;;5019545;28;20052;-63
2023/10/30 08:09:43;;;;;;;4.63;1.30;;;17.90;70.20;;;;;;5020343;28;20495;-65
2023/10/30 08:12:09;;;;;;;3.10;1.58;;;17.90;70.30;;;;;;5020206;28;20037;-65
2023/10/30 08:14:34;;;;;;;3.35;1.40;;;18.00;70.90;;;;;;5024125;28;20033;-64
2023/10/30 08:17:02;;;;;;;5.55;1.80;;;17.90;70.20;;;;;;5020168;28;20033;-63
2023/10/30 08:19:28;;;;;;;3.60;1.67;;;18.00;70.20;;;;;;5017940;28;20045;-65
2023/10/30 08:21:53;;;;;;;4.10;1.38;;;17.90;70.20;;;;;;5014095;28;20030;-64
2023/10/30 08:24:19;;;;;;;6.35;2.15;;;18.00;70.20;;;;;;5005353;28;20071;-66
2023/10/30 08:26:45;;;;;;;3.03;1.60;;;18.00;70.30;;;;;;5015921;28;20577;-66
2023/10/30 08:29:10;;;;;;;3.53;1.40;;;18.00;70.20;;;;;;5022268;28;20048;-66
2023/10/30 08:31:37;;;;;;;7.28;1.90;;;18.00;70.20;;;;;;5023963;28;20026;-66
2023/10/30 08:34:02;;;;;;;3.90;1.95;;;18.00;70.30;;;;;;5020219;28;20033;-66
2023/10/30 08:36:28;;;;;;;6.50;1.95;;;18.00;70.40;;;;;;5019502;28;20103;-66
2023/10/30 08:38:53;;;;;;;7.13;1.60;;;18.00;70.40;;;;;;5017689;28;20030;-67
2023/10/30 08:41:19;;;;;;;5.20;1.70;;;18.00;70.30;;;;;;5024183;28;20044;-66
2023/10/30 08:43:45;;;;;;;6.28;2.47;;;18.00;70.40;;;;;;5016453;28;20203;-62
2023/10/30 08:46:16;;;;;;;4.35;1.70;;;18.00;70.30;;;;;;5018823;28;20569;-67
2023/10/30 08:48:42;;;;;;;4.20;1.67;;;18.00;70.30;;;;;;5016567;28;20061;-64
2023/10/30 08:51:07;;;;;;;4.72;1.80;;;18.00;70.30;;;;;;5018644;28;20057;-66
2023/10/30 08:53:34;;;;;;;4.80;1.52;;;18.00;70.30;;;;;;5020367;28;20669;-65
2023/10/30 08:56:00;;;;;;;4.00;1.95;;;18.00;70.30;;;;;;5013195;28;20037;-65
2023/10/30 08:58:25;;;;;;;5.20;1.58;;;18.00;70.20;;;;;;5022535;28;20033;-65
2023/10/30 09:00:51;;;;;;;5.30;1.77;;;18.00;70.30;;;;;;5022836;28;20175;-62
2023/10/30 09:03:17;;;;;;;7.13;1.70;;;18.00;70.20;;;;;;5019785;28;20041;-66
2023/10/30 09:05:42;;;;;;;4.35;2.20;;;18.00;70.20;;;;;;5022754;28;20040;-66
2023/10/30 09:08:08;;;;;;;4.20;1.70;;;18.00;70.20;;;;;;5020500;28;20393;-66
2023/10/30 09:10:34;;;;;;;5.10;1.92;;;18.00;70.20;;;;;;5022011;28;20055;-65
2023/10/30 09:13:00;;;;;;;5.43;1.92;;;18.00;70.20;;;;;;5021840;28;20048;-66
2023/10/30 09:15:25;;;;;;;6.00;2.45;;;18.00;70.20;;;;;;5016614;28;20033;-67
2023/10/30 09:17:52;;;;;;;7.38;2.03;;;18.00;70.10;;;;;;5017770;28;20443;-66
2023/10/30 09:20:17;;;;;;;3.92;1.67;;;18.00;70.10;;;;;;5006917;28;20029;-66
2023/10/30 09:22:43;;;;;;;3.65;1.60;;;18.10;70.10;;;;;;5015539;28;20099;-67
2023/10/30 09:25:09;;;;;;;4.72;1.40;;;18.10;70.10;;;;;;5014720;28;20026;-67
2023/10/30 09:27:35;;;;;;;5.10;2.10;;;18.10;70.10;;;;;;5018352;28;20037;-67
2023/10/30 09:30:00;;;;;;;3.75;1.73;;;18.10;70.10;;;;;;5022400;28;20041;-66
2023/10/30 09:32:26;;;;;;;3.10;1.65;;;18.10;70.10;;;;;;5020489;28;20029;-67
2023/10/30 09:34:51;;;;;;;4.22;1.92;;;18.10;70.10;;;;;;5018019;28;20033;-67
2023/10/30 09:37:17;;;;;;;4.85;1.50;;;18.10;70.10;;;;;;5019459;28;20142;-67
2023/10/30 09:39:43;;;;;;;5.95;2.03;;;18.10;70.10;;;;;;5021055;28;20040;-67
2023/10/30 09:42:08;;;;;;;2.80;1.55;;;18.10;70.10;;;;;;5019772;28;20506;-67
2023/10/30 09:44:34;;;;;;;3.35;1.65;;;18.10;70.00;;;;;;5003954;28;20473;-67
2023/10/30 09:47:01;;;;;;;3.60;2.15;;;18.10;70.00;;;;;;5013275;28;20362;-67
2023/10/30 09:49:28;;;;;;;4.47;1.77;;;18.10;70.00;;;;;;5016388;28;20102;-67
2023/10/30 09:51:56;;;;;;;2.75;1.40;;;18.10;70.00;;;;;;5015715;28;20066;-66
2023/10/30 09:54:22;;;;;;;3.33;1.58;;;18.10;70.00;;;;;;5016910;28;20428;-67
2023/10/30 09:56:49;;;;;;;5.95;2.42;;;18.10;69.90;;;;;;5019237;28;20335;-67
2023/10/30 09:59:16;;;;;;;3.58;1.60;;;18.10;69.90;;;;;;5020524;28;20033;-66
2023/10/30 10:01:42;;;;;;;4.75;1.60;;;18.10;69.90;;;;;;5019942;28;20041;-67
2023/10/30 10:04:08;;;;;;;4.28;1.83;;;18.10;69.90;;;;;;5018354;28;20036;-67
2023/10/30 10:06:34;;;;;;;6.25;2.15;;;18.10;69.90;;;;;;5019923;28;20026;-67
2023/10/30 10:09:01;;;;;;;4.18;1.65;;;18.10;69.90;;;;;;5018425;28;20542;-65
2023/10/30 10:11:33;;;;;;;4.55;1.58;;;18.10;70.00;;;;;;5017161;28;20029;-68
2023/10/30 10:13:59;;;;;;;3.22;1.80;;;18.10;70.00;;;;;;5016789;28;20386;-66
2023/10/30 10:16:31;;;;;;;3.70;1.67;;;18.10;69.90;;;;;;5015095;28;20038;-61
2023/10/30 10:18:57;;;;;;;4.63;1.58;;;18.10;69.90;;;;;;5014871;28;20057;-68
2023/10/30 10:21:22;;;;;;;3.05;1.40;;;18.10;69.90;;;;;;5015990;28;20095;-68
2023/10/30 10:23:49;;;;;;;2.47;1.20;;;18.10;69.90;;;;;;5013057;28;20025;-66
2023/10/30 10:26:15;;;;;;;3.45;1.30;;;18.10;69.90;;;;;;5018996;28;20048;-66
2023/10/30 10:28:42;;;;;;;3.90;1.90;;;18.10;69.90;;;;;;5020608;28;20041;-68
2023/10/30 10:31:08;;;;;;;2.60;1.35;;;18.10;69.90;;;;;;5018475;28;20053;-64
2023/10/30 10:33:35;;;;;;;3.55;1.23;;;18.20;69.90;;;;;;5020180;28;20061;-67
2023/10/30 10:36:03;;;;;;;3.67;1.40;;;18.20;70.00;;;;;;5017949;28;20130;-67
2023/10/30 10:38:29;;;;;;;2.20;1.15;;;18.10;69.90;;;;;;5018485;28;20429;-68
2023/10/30 10:40:55;;;;;;;2.83;1.30;;;18.10;70.00;;;;;;5016151;28;20038;-65
2023/10/30 10:43:22;;;;;;;4.82;1.70;;;18.10;70.00;;;;;;5015601;28;20025;-64
2023/10/30 10:45:50;;;;;;;3.47;1.17;;;18.10;70.00;;;;;;5017593;28;20022;-67
2023/10/30 10:48:16;;;;;;;2.15;1.35;;;18.20;70.20;;;;;;5010676;28;20400;-67
2023/10/30 10:50:42;;;;;;;5.30;1.23;;;18.10;70.10;;;;;;5017126;28;20025;-68
2023/10/30 10:53:10;;;;;;;2.50;1.00;;;18.10;70.20;;;;;;5011636;28;20033;-67
2023/10/30 10:55:45;;;;;;;1.92;1.00;;;18.20;70.20;;;;;;5020005;28;20072;-66
2023/10/30 10:58:17;;;;;;;;;;;18.10;70.20;;;;;;5018583;28;20084;-66
2023/10/30 11:00:52;;;;;;;2.80;0.98;;;18.20;70.30;;;;;;5018661;28;19909;-66
2023/10/30 11:03:19;;;;;;;2.35;1.00;;;18.20;70.20;;;;;;5020805;28;20040;-63
2023/10/30 11:05:50;;;;;;;4.45;1.38;;;18.20;70.30;;;;;;5022247;28;20032;-64
2023/10/30 11:08:21;;;;;;;1.60;0.93;;;18.20;70.30;;;;;;5019195;28;20030;-66
2023/10/30 11:10:56;;;;;;;3.75;1.48;;;18.20;70.20;;;;;;5021981;28;20033;-67
2023/10/30 11:13:39;;;;;;;;;;;18.20;70.20;;;;;;5016035;28;20117;-63
2023/10/30 11:16:16;;;;;;;2.67;1.13;;;18.20;70.30;;;;;;5017305;28;19988;-65
2023/10/30 11:18:41;;;;;;;3.75;1.10;;;18.20;70.40;;;;;;5018895;28;20042;-65
2023/10/30 11:21:17;;;;;;;2.72;1.20;;;18.20;70.30;;;;;;5017872;28;20098;-66
2023/10/30 11:23:47;;;;;;;2.58;1.20;;;18.20;70.30;;;;;;5019658;28;20116;-65
2023/10/30 11:26:36;;;;;;;4.57;1.10;;;18.20;70.40;;;;;;5021928;28;20111;-64
2023/10/30 11:29:08;;;;;;;2.88;1.27;;;18.20;70.30;;;;;;5019814;28;20144;-64
2023/10/30 11:32:00;;;;;;;1.83;1.00;;;18.20;70.40;;;;;;5022024;28;20029;-65
2023/10/30 11:34:29;;;;;;;2.75;1.08;;;18.20;70.30;;;;;;5019948;28;20045;-64
2023/10/30 11:37:03;;;;;;;4.60;1.20;;;18.20;70.30;;;;;;5021505;28;20529;-64
2023/10/30 11:39:33;;;;;;;2.03;1.27;;;18.20;70.20;;;;;;5020317;28;20619;-68
2023/10/30 11:41:59;;;;;;;3.28;1.02;;;18.20;70.20;;;;;;5017086;28;20025;-66
2023/10/30 11:44:28;;;;;;;3.03;1.05;;;18.20;70.20;;;;;;5014680;28;20030;-67
2023/10/30 11:46:55;;;;;;;2.50;0.98;;;18.20;70.20;;;;;;5016540;28;20030;-67
2023/10/30 11:49:23;;;;;;;2.25;0.98;;;18.20;70.20;;;;;;5018828;28;20512;-68
2023/10/30 11:51:51;;;;;;;3.30;1.25;;;18.20;70.10;;;;;;5018009;28;20637;-66
2023/10/30 11:54:44;;;;;;;2.92;0.80;;;18.20;70.20;;;;;;5019703;28;20545;-65
2023/10/30 11:57:10;;;;;;;2.58;1.15;;;18.20;70.10;;;;;;5008763;28;20038;-64
2023/10/30 11:59:38;;;;;;;2.53;0.98;;;18.20;70.10;;;;;;5022473;28;20029;-63
2023/10/30 12:02:07;;;;;;;3.80;1.00;;;18.20;70.10;;;;;;5021063;28;20048;-64
2023/10/30 12:04:33;;;;;;;2.03;1.08;;;18.20;70.10;;;;;;5019351;28;20042;-64
2023/10/30 12:06:59;;;;;;;2.20;1.00;;;18.20;70.10;;;;;;5019779;28;20573;-63
2023/10/30 12:09:27;;;;;;;3.75;1.13;;;18.20;70.00;;;;;;5016285;28;20050;-64
2023/10/30 12:11:57;;;;;;;2.78;0.90;;;18.20;70.00;;;;;;5015057;28;20045;-64
2023/10/30 12:14:23;;;;;;;2.83;0.98;;;18.30;70.10;;;;;;5014664;28;20030;-64
2023/10/30 12:16:50;;;;;;;1.83;0.63;;;18.30;70.10;;;;;;5018790;28;20037;-65
2023/10/30 12:19:20;;;;;;;4.97;0.93;;;18.20;70.00;;;;;;5013880;28;20030;-65
2023/10/30 12:21:46;;;;;;;1.80;0.80;;;18.20;70.00;;;;;;5022711;28;20104;-66
2023/10/30 12:24:15;;;;;;;2.58;0.80;;;18.20;70.00;;;;;;5020533;28;20038;-66
2023/10/30 12:26:40;;;;;;;2.78;0.88;;;18.30;70.10;;;;;;5022581;28;20046;-64
2023/10/30 12:29:06;;;;;;;1.83;1.10;;;18.20;70.00;;;;;;5020409;28;20026;-65
2023/10/30 12:31:32;;;;;;;1.63;0.80;;;18.30;70.10;;;;;;5020765;28;20149;-65
2023/10/30 12:34:11;;;;;;;2.90;0.80;;;18.30;70.20;;;;;;5019455;28;20038;-65
2023/10/30 12:36:37;;;;;;;2.85;0.80;;;18.30;70.10;;;;;;5017690;28;20324;-67
2023/10/30 12:39:18;;;;;;;3.00;0.90;;;18.20;70.10;;;;;;5015638;28;20113;-66
2023/10/30 12:41:55;;;;;;;2.78;1.00;;;18.30;70.20;;;;;;5014804;28;20061;-66
2023/10/30 12:44:23;;;;;;;2.83;0.70;;;18.30;70.30;;;;;;5016811;28;20033;-67